sensor_id;sensor_type;location;lat;lon;timestamp;pressure;altitude;pressure_sealevel;temperature;humidity
51526;BME280;37611;51.794;21.590;2022-12-18T00:00:25;101258.71;;;-6.26;100.00
51526;BME280;37611;51.794;21.590;2022-12-18T00:04:46;101265.83;;;-6.22;100.00
51526;BME280;37611;51.794;21.590;2022-12-18T00:08:49;101272.98;;;-6.22;100.00
51526;BME280;37611;51.794;21.590;2022-12-18T00:12:50;101271.95;;;-6.19;100.00
51526;BME280;37611;51.794;21.590;2022-12-18T00:16:52;101278.93;;;-6.19;100.00
51526;BME280;37611;51.794;21.590;2022-12-18T00:20:58;101284.60;;;-6.24;100.00
51526;BME280;37611;51.794;21.590;2022-12-18T00:25:00;101287.56;;;-6.31;100.00
51526;BME280;37611;51.794;21.590;2022-12-18T00:29:06;101292.33;;;-6.32;100.00
51526;BME280;37611;51.794;21.590;2022-12-18T00:33:08;101298.62;;;-6.27;100.00
51526;BME280;37611;51.794;21.590;2022-12-18T00:37:10;101302.82;;;-6.22;100.00
51526;BME280;37611;51.794;21.590;2022-12-18T00:41:13;101319.14;;;-6.17;100.00
51526;BME280;37611;51.794;21.590;2022-12-18T00:45:36;101320.88;;;-6.19;100.00
51526;BME280;37611;51.794;21.590;2022-12-18T00:49:38;101320.00;;;-6.18;100.00
51526;BME280;37611;51.794;21.590;2022-12-18T00:53:40;101323.91;;;-6.17;100.00
51526;BME280;37611;51.794;21.590;2022-12-18T00:57:42;101327.68;;;-6.18;100.00
51526;BME280;37611;51.794;21.590;2022-12-18T01:01:45;101336.77;;;-6.26;100.00
51526;BME280;37611;51.794;21.590;2022-12-18T01:05:47;101338.54;;;-6.32;100.00
51526;BME280;37611;51.794;21.590;2022-12-18T01:09:49;101342.95;;;-6.31;100.00
51526;BME280;37611;51.794;21.590;2022-12-18T01:13:53;101342.40;;;-6.24;100.00
51526;BME280;37611;51.794;21.590;2022-12-18T01:17:55;101346.90;;;-6.14;100.00
51526;BME280;37611;51.794;21.590;2022-12-18T01:21:57;101348.91;;;-6.09;100.00
51526;BME280;37611;51.794;21.590;2022-12-18T01:26:07;101356.40;;;-6.07;100.00
51526;BME280;37611;51.794;21.590;2022-12-18T01:30:09;101369.67;;;-6.05;100.00
51526;BME280;37611;51.794;21.590;2022-12-18T01:34:11;101367.79;;;-6.04;100.00
51526;BME280;37611;51.794;21.590;2022-12-18T01:38:13;101372.40;;;-6.05;100.00
51526;BME280;37611;51.794;21.590;2022-12-18T01:42:16;101381.45;;;-6.06;100.00
51526;BME280;37611;51.794;21.590;2022-12-18T01:46:20;101386.25;;;-6.08;100.00
51526;BME280;37611;51.794;21.590;2022-12-18T01:50:40;101382.14;;;-6.07;100.00
51526;BME280;37611;51.794;21.590;2022-12-18T01:54:43;101388.29;;;-6.09;100.00
51526;BME280;37611;51.794;21.590;2022-12-18T02:02:55;101404.97;;;-6.06;100.00
51526;BME280;37611;51.794;21.590;2022-12-18T02:15:16;101413.87;;;-5.91;100.00
51526;BME280;37611;51.794;21.590;2022-12-18T02:19:59;101417.33;;;-5.94;100.00
51526;BME280;37611;51.794;21.590;2022-12-18T02:28:16;101420.30;;;-6.04;100.00
51526;BME280;37611;51.794;21.590;2022-12-18T02:32:27;101430.41;;;-6.08;100.00
51526;BME280;37611;51.794;21.590;2022-12-18T02:36:32;101439.45;;;-6.08;100.00
51526;BME280;37611;51.794;21.590;2022-12-18T02:40:36;101441.51;;;-6.10;100.00
51526;BME280;37611;51.794;21.590;2022-12-18T02:44:48;101442.67;;;-6.06;100.00
51526;BME280;37611;51.794;21.590;2022-12-18T02:48:53;101441.77;;;-6.01;100.00
51526;BME280;37611;51.794;21.590;2022-12-18T02:53:20;101447.00;;;-5.94;100.00
51526;BME280;37611;51.794;21.590;2022-12-18T03:01:44;101458.34;;;-5.85;100.00
51526;BME280;37611;51.794;21.590;2022-12-18T03:05:55;101464.14;;;-5.86;100.00
51526;BME280;37611;51.794;21.590;2022-12-18T03:09:59;101472.14;;;-5.84;100.00
51526;BME280;37611;51.794;21.590;2022-12-18T03:14:03;101480.32;;;-5.83;100.00
51526;BME280;37611;51.794;21.590;2022-12-18T03:18:17;101486.31;;;-5.84;100.00
51526;BME280;37611;51.794;21.590;2022-12-18T03:22:23;101496.23;;;-5.87;100.00
51526;BME280;37611;51.794;21.590;2022-12-18T03:26:27;101501.98;;;-5.82;100.00
51526;BME280;37611;51.794;21.590;2022-12-18T03:30:32;101505.70;;;-5.78;100.00
51526;BME280;37611;51.794;21.590;2022-12-18T03:34:38;101503.42;;;-5.71;100.00
51526;BME280;37611;51.794;21.590;2022-12-18T03:38:42;101505.90;;;-5.61;100.00
51526;BME280;37611;51.794;21.590;2022-12-18T03:42:56;101514.56;;;-5.56;100.00
51526;BME280;37611;51.794;21.590;2022-12-18T03:51:53;101521.38;;;-5.55;100.00
51526;BME280;37611;51.794;21.590;2022-12-18T03:55:57;101524.15;;;-5.59;100.00
51526;BME280;37611;51.794;21.590;2022-12-18T04:00:06;101529.97;;;-5.61;100.00
51526;BME280;37611;51.794;21.590;2022-12-18T04:04:09;101542.61;;;-5.63;100.00
51526;BME280;37611;51.794;21.590;2022-12-18T04:08:13;101542.65;;;-5.68;100.00
51526;BME280;37611;51.794;21.590;2022-12-18T04:12:15;101539.21;;;-5.66;100.00
51526;BME280;37611;51.794;21.590;2022-12-18T04:16:17;101538.33;;;-5.61;100.00
51526;BME280;37611;51.794;21.590;2022-12-18T04:20:19;101542.89;;;-5.55;100.00
51526;BME280;37611;51.794;21.590;2022-12-18T04:24:21;101546.57;;;-5.47;100.00
51526;BME280;37611;51.794;21.590;2022-12-18T04:28:22;101548.58;;;-5.40;100.00
51526;BME280;37611;51.794;21.590;2022-12-18T04:32:24;101552.65;;;-5.39;100.00
51526;BME280;37611;51.794;21.590;2022-12-18T04:36:26;101560.51;;;-5.39;100.00
51526;BME280;37611;51.794;21.590;2022-12-18T04:40:28;101560.56;;;-5.46;100.00
51526;BME280;37611;51.794;21.590;2022-12-18T04:44:30;101560.48;;;-5.57;100.00
51526;BME280;37611;51.794;21.590;2022-12-18T04:48:32;101571.95;;;-5.61;100.00
51526;BME280;37611;51.794;21.590;2022-12-18T04:52:35;101582.05;;;-5.65;100.00
51526;BME280;37611;51.794;21.590;2022-12-18T04:56:37;101585.45;;;-5.63;100.00
51526;BME280;37611;51.794;21.590;2022-12-18T05:00:39;101584.89;;;-5.58;100.00
51526;BME280;37611;51.794;21.590;2022-12-18T05:04:41;101598.85;;;-5.52;100.00
51526;BME280;37611;51.794;21.590;2022-12-18T05:08:42;101602.55;;;-5.44;100.00
51526;BME280;37611;51.794;21.590;2022-12-18T05:12:44;101607.61;;;-5.39;100.00
51526;BME280;37611;51.794;21.590;2022-12-18T05:17:01;101615.30;;;-5.38;100.00
51526;BME280;37611;51.794;21.590;2022-12-18T05:21:04;101622.45;;;-5.36;100.00
51526;BME280;37611;51.794;21.590;2022-12-18T05:25:06;101633.39;;;-5.37;100.00
51526;BME280;37611;51.794;21.590;2022-12-18T05:29:08;101636.33;;;-5.42;100.00
51526;BME280;37611;51.794;21.590;2022-12-18T05:33:13;101648.13;;;-5.46;100.00
51526;BME280;37611;51.794;21.590;2022-12-18T05:37:15;101652.41;;;-5.48;100.00
51526;BME280;37611;51.794;21.590;2022-12-18T05:41:18;101657.02;;;-5.48;100.00
51526;BME280;37611;51.794;21.590;2022-12-18T05:45:20;101663.64;;;-5.42;100.00
51526;BME280;37611;51.794;21.590;2022-12-18T05:49:22;101667.06;;;-5.42;100.00
51526;BME280;37611;51.794;21.590;2022-12-18T05:53:23;101670.60;;;-5.35;100.00
51526;BME280;37611;51.794;21.590;2022-12-18T05:57:25;101675.36;;;-5.33;100.00
51526;BME280;37611;51.794;21.590;2022-12-18T06:01:27;101678.63;;;-5.36;100.00
51526;BME280;37611;51.794;21.590;2022-12-18T06:05:35;101690.27;;;-5.43;100.00
51526;BME280;37611;51.794;21.590;2022-12-18T06:09:37;101690.97;;;-5.47;100.00
51526;BME280;37611;51.794;21.590;2022-12-18T06:13:39;101698.70;;;-5.56;100.00
51526;BME280;37611;51.794;21.590;2022-12-18T06:17:41;101709.48;;;-5.59;100.00
51526;BME280;37611;51.794;21.590;2022-12-18T06:21:43;101715.64;;;-5.60;100.00
51526;BME280;37611;51.794;21.590;2022-12-18T06:25:45;101719.20;;;-5.57;100.00
51526;BME280;37611;51.794;21.590;2022-12-18T06:29:46;101729.06;;;-5.51;100.00
51526;BME280;37611;51.794;21.590;2022-12-18T06:33:49;101740.67;;;-5.50;100.00
51526;BME280;37611;51.794;21.590;2022-12-18T06:37:51;101750.23;;;-5.53;100.00
51526;BME280;37611;51.794;21.590;2022-12-18T06:41:53;101756.23;;;-5.55;100.00
51526;BME280;37611;51.794;21.590;2022-12-18T06:45:59;101762.05;;;-5.59;100.00
51526;BME280;37611;51.794;21.590;2022-12-18T06:50:02;101766.66;;;-5.62;100.00
51526;BME280;37611;51.794;21.590;2022-12-18T06:54:04;101772.83;;;-5.66;100.00
51526;BME280;37611;51.794;21.590;2022-12-18T06:58:06;101780.52;;;-5.72;100.00
51526;BME280;37611;51.794;21.590;2022-12-18T07:02:11;101786.83;;;-5.69;100.00
51526;BME280;37611;51.794;21.590;2022-12-18T07:06:15;101796.54;;;-5.63;100.00
51526;BME280;37611;51.794;21.590;2022-12-18T07:10:17;101801.28;;;-5.54;100.00
51526;BME280;37611;51.794;21.590;2022-12-18T07:14:19;101805.35;;;-5.48;100.00
51526;BME280;37611;51.794;21.590;2022-12-18T07:18:21;101811.67;;;-5.49;100.00
51526;BME280;37611;51.794;21.590;2022-12-18T07:22:25;101819.86;;;-5.51;100.00
51526;BME280;37611;51.794;21.590;2022-12-18T07:26:27;101829.80;;;-5.58;100.00
51526;BME280;37611;51.794;21.590;2022-12-18T07:30:29;101837.33;;;-5.67;100.00
51526;BME280;37611;51.794;21.590;2022-12-18T07:34:31;101841.08;;;-5.66;100.00
51526;BME280;37611;51.794;21.590;2022-12-18T07:38:34;101846.37;;;-5.66;100.00
51526;BME280;37611;51.794;21.590;2022-12-18T07:42:36;101850.80;;;-5.62;100.00
51526;BME280;37611;51.794;21.590;2022-12-18T07:46:38;101862.90;;;-5.57;100.00
51526;BME280;37611;51.794;21.590;2022-12-18T07:50:40;101867.83;;;-5.49;100.00
51526;BME280;37611;51.794;21.590;2022-12-18T07:54:42;101868.99;;;-5.38;100.00
51526;BME280;37611;51.794;21.590;2022-12-18T07:58:44;101873.93;;;-5.34;100.00
51526;BME280;37611;51.794;21.590;2022-12-18T08:02:49;101879.06;;;-5.39;100.00
51526;BME280;37611;51.794;21.590;2022-12-18T08:06:51;101888.79;;;-5.38;100.00
51526;BME280;37611;51.794;21.590;2022-12-18T08:10:53;101895.64;;;-5.44;100.00
51526;BME280;37611;51.794;21.590;2022-12-18T08:14:55;101908.11;;;-5.47;100.00
51526;BME280;37611;51.794;21.590;2022-12-18T08:18:56;101911.36;;;-5.49;100.00
51526;BME280;37611;51.794;21.590;2022-12-18T08:22:58;101913.23;;;-5.50;100.00
51526;BME280;37611;51.794;21.590;2022-12-18T08:27:00;101920.57;;;-5.47;100.00
51526;BME280;37611;51.794;21.590;2022-12-18T08:31:02;101928.75;;;-5.39;100.00
51526;BME280;37611;51.794;21.590;2022-12-18T08:35:05;101928.71;;;-5.25;100.00
51526;BME280;37611;51.794;21.590;2022-12-18T08:39:07;101933.10;;;-5.11;100.00
51526;BME280;37611;51.794;21.590;2022-12-18T08:43:10;101940.27;;;-5.06;100.00
51526;BME280;37611;51.794;21.590;2022-12-18T08:47:35;101948.45;;;-5.03;100.00
51526;BME280;37611;51.794;21.590;2022-12-18T08:51:37;101951.17;;;-5.01;100.00
51526;BME280;37611;51.794;21.590;2022-12-18T08:55:39;101955.30;;;-5.09;100.00
51526;BME280;37611;51.794;21.590;2022-12-18T08:59:41;101958.22;;;-5.09;100.00
51526;BME280;37611;51.794;21.590;2022-12-18T09:03:46;101966.91;;;-5.06;100.00
51526;BME280;37611;51.794;21.590;2022-12-18T09:07:48;101967.08;;;-5.06;100.00
51526;BME280;37611;51.794;21.590;2022-12-18T09:11:50;101975.29;;;-5.08;100.00
51526;BME280;37611;51.794;21.590;2022-12-18T09:15:53;101976.14;;;-5.06;100.00
51526;BME280;37611;51.794;21.590;2022-12-18T09:19:55;101977.31;;;-5.00;100.00
51526;BME280;37611;51.794;21.590;2022-12-18T09:23:57;101976.95;;;-4.91;100.00
51526;BME280;37611;51.794;21.590;2022-12-18T09:28:00;101983.08;;;-4.84;100.00
51526;BME280;37611;51.794;21.590;2022-12-18T09:32:01;101988.86;;;-4.79;100.00
51526;BME280;37611;51.794;21.590;2022-12-18T09:36:06;101997.91;;;-4.75;100.00
51526;BME280;37611;51.794;21.590;2022-12-18T09:40:20;102000.99;;;-4.80;100.00
51526;BME280;37611;51.794;21.590;2022-12-18T09:44:29;101998.77;;;-4.80;100.00
51526;BME280;37611;51.794;21.590;2022-12-18T09:48:35;101996.88;;;-4.77;100.00
51526;BME280;37611;51.794;21.590;2022-12-18T09:52:45;102001.69;;;-4.81;100.00
51526;BME280;37611;51.794;21.590;2022-12-18T09:56:48;102004.92;;;-4.80;100.00
51526;BME280;37611;51.794;21.590;2022-12-18T10:00:52;102002.70;;;-4.76;100.00
51526;BME280;37611;51.794;21.590;2022-12-18T10:05:18;102008.88;;;-4.84;100.00
51526;BME280;37611;51.794;21.590;2022-12-18T10:09:53;102024.43;;;-4.86;100.00
51526;BME280;37611;51.794;21.590;2022-12-18T10:14:04;102014.30;;;-4.73;100.00
51526;BME280;37611;51.794;21.590;2022-12-18T10:22:57;102007.19;;;-4.47;100.00
51526;BME280;37611;51.794;21.590;2022-12-18T10:27:28;102011.94;;;-4.40;100.00
51526;BME280;37611;51.794;21.590;2022-12-18T10:31:31;102013.77;;;-4.29;100.00
51526;BME280;37611;51.794;21.590;2022-12-18T10:35:34;102020.27;;;-4.28;100.00
51526;BME280;37611;51.794;21.590;2022-12-18T10:39:37;102023.05;;;-4.38;100.00
51526;BME280;37611;51.794;21.590;2022-12-18T10:43:39;102026.37;;;-4.55;100.00
51526;BME280;37611;51.794;21.590;2022-12-18T10:47:49;102032.16;;;-4.52;100.00
51526;BME280;37611;51.794;21.590;2022-12-18T10:51:51;102042.57;;;-4.43;100.00
51526;BME280;37611;51.794;21.590;2022-12-18T10:56:06;102036.53;;;-4.35;100.00
51526;BME280;37611;51.794;21.590;2022-12-18T11:04:28;102034.14;;;-4.32;100.00
51526;BME280;37611;51.794;21.590;2022-12-18T11:08:30;102026.41;;;-4.28;100.00
51526;BME280;37611;51.794;21.590;2022-12-18T11:12:32;102031.36;;;-4.26;100.00
51526;BME280;37611;51.794;21.590;2022-12-18T11:16:44;102037.64;;;-4.16;100.00
51526;BME280;37611;51.794;21.590;2022-12-18T11:20:55;102043.66;;;-4.22;100.00
51526;BME280;37611;51.794;21.590;2022-12-18T11:25:02;102048.79;;;-4.22;100.00
51526;BME280;37611;51.794;21.590;2022-12-18T11:29:09;102049.14;;;-4.23;100.00
51526;BME280;37611;51.794;21.590;2022-12-18T11:33:23;102046.89;;;-4.19;100.00
51526;BME280;37611;51.794;21.590;2022-12-18T11:37:25;102043.05;;;-4.05;100.00
51526;BME280;37611;51.794;21.590;2022-12-18T11:41:41;102053.44;;;-3.97;100.00
51526;BME280;37611;51.794;21.590;2022-12-18T11:46:10;102052.10;;;-4.01;100.00
51526;BME280;37611;51.794;21.590;2022-12-18T11:50:20;102054.36;;;-4.08;100.00
51526;BME280;37611;51.794;21.590;2022-12-18T11:54:23;102052.52;;;-4.15;100.00
51526;BME280;37611;51.794;21.590;2022-12-18T12:11:52;102066.77;;;-4.24;100.00
51526;BME280;37611;51.794;21.590;2022-12-18T12:16:06;102067.66;;;-4.32;100.00
51526;BME280;37611;51.794;21.590;2022-12-18T12:29:19;102092.97;;;-4.32;100.00
51526;BME280;37611;51.794;21.590;2022-12-18T12:37:56;102110.04;;;-4.25;100.00
51526;BME280;37611;51.794;21.590;2022-12-18T12:42:02;102111.02;;;-4.13;100.00
51526;BME280;37611;51.794;21.590;2022-12-18T12:46:24;102108.42;;;-4.08;100.00
51526;BME280;37611;51.794;21.590;2022-12-18T12:50:28;102115.60;;;-4.05;100.00
51526;BME280;37611;51.794;21.590;2022-12-18T12:54:33;102122.29;;;-4.09;100.00
51526;BME280;37611;51.794;21.590;2022-12-18T12:59:13;102115.29;;;-4.13;100.00
51526;BME280;37611;51.794;21.590;2022-12-18T13:07:39;102119.81;;;-4.35;100.00
51526;BME280;37611;51.794;21.590;2022-12-18T13:11:45;102132.83;;;-4.38;100.00
51526;BME280;37611;51.794;21.590;2022-12-18T13:16:07;102138.35;;;-4.53;100.00
51526;BME280;37611;51.794;21.590;2022-12-18T13:20:14;102139.23;;;-4.61;100.00
51526;BME280;37611;51.794;21.590;2022-12-18T13:24:28;102149.98;;;-4.58;100.00
51526;BME280;37611;51.794;21.590;2022-12-18T13:32:46;102144.67;;;-4.53;100.00
51526;BME280;37611;51.794;21.590;2022-12-18T13:36:49;102149.44;;;-4.41;100.00
51526;BME280;37611;51.794;21.590;2022-12-18T13:44:53;102165.54;;;-4.56;100.00
51526;BME280;37611;51.794;21.590;2022-12-18T13:53:21;102175.64;;;-4.87;100.00
51526;BME280;37611;51.794;21.590;2022-12-18T13:57:43;102182.32;;;-4.93;100.00
51526;BME280;37611;51.794;21.590;2022-12-18T14:01:55;102187.79;;;-5.05;100.00
51526;BME280;37611;51.794;21.590;2022-12-18T14:06:08;102190.02;;;-5.10;100.00
51526;BME280;37611;51.794;21.590;2022-12-18T14:10:13;102191.89;;;-5.10;100.00
51526;BME280;37611;51.794;21.590;2022-12-18T14:14:18;102192.58;;;-5.11;100.00
51526;BME280;37611;51.794;21.590;2022-12-18T14:22:46;102190.01;;;-5.08;100.00
51526;BME280;37611;51.794;21.590;2022-12-18T14:26:49;102198.02;;;-5.16;100.00
51526;BME280;37611;51.794;21.590;2022-12-18T14:30:52;102200.92;;;-5.24;100.00
51526;BME280;37611;51.794;21.590;2022-12-18T14:34:54;102207.58;;;-5.30;100.00
51526;BME280;37611;51.794;21.590;2022-12-18T14:38:58;102216.95;;;-5.37;100.00
51526;BME280;37611;51.794;21.590;2022-12-18T14:43:00;102221.38;;;-5.43;100.00
51526;BME280;37611;51.794;21.590;2022-12-18T14:47:02;102223.94;;;-5.45;100.00
51526;BME280;37611;51.794;21.590;2022-12-18T14:51:05;102224.09;;;-5.46;100.00
51526;BME280;37611;51.794;21.590;2022-12-18T14:55:16;102225.30;;;-5.42;100.00
51526;BME280;37611;51.794;21.590;2022-12-18T14:59:23;102229.41;;;-5.40;100.00
51526;BME280;37611;51.794;21.590;2022-12-18T15:03:26;102233.87;;;-5.31;100.00
51526;BME280;37611;51.794;21.590;2022-12-18T15:07:43;102234.40;;;-5.23;100.00
51526;BME280;37611;51.794;21.590;2022-12-18T15:11:46;102237.29;;;-5.25;100.00
51526;BME280;37611;51.794;21.590;2022-12-18T15:15:49;102243.26;;;-5.30;100.00
51526;BME280;37611;51.794;21.590;2022-12-18T15:19:53;102241.35;;;-5.38;100.00
51526;BME280;37611;51.794;21.590;2022-12-18T15:24:00;102237.94;;;-5.41;100.00
51526;BME280;37611;51.794;21.590;2022-12-18T15:28:02;102239.30;;;-5.44;100.00
51526;BME280;37611;51.794;21.590;2022-12-18T15:32:10;102248.66;;;-5.53;100.00
51526;BME280;37611;51.794;21.590;2022-12-18T15:36:17;102246.08;;;-5.58;100.00
51526;BME280;37611;51.794;21.590;2022-12-18T15:40:21;102249.17;;;-5.49;100.00
51526;BME280;37611;51.794;21.590;2022-12-18T15:44:24;102248.52;;;-5.41;100.00
51526;BME280;37611;51.794;21.590;2022-12-18T15:48:27;102251.78;;;-5.36;100.00
51526;BME280;37611;51.794;21.590;2022-12-18T15:52:29;102255.70;;;-5.41;100.00
51526;BME280;37611;51.794;21.590;2022-12-18T15:56:31;102256.20;;;-5.45;100.00
51526;BME280;37611;51.794;21.590;2022-12-18T16:00:53;102258.41;;;-5.46;100.00
51526;BME280;37611;51.794;21.590;2022-12-18T16:04:57;102266.42;;;-5.48;100.00
51526;BME280;37611;51.794;21.590;2022-12-18T16:08:58;102268.12;;;-5.54;100.00
51526;BME280;37611;51.794;21.590;2022-12-18T16:13:00;102269.96;;;-5.61;100.00
51526;BME280;37611;51.794;21.590;2022-12-18T16:17:05;102269.92;;;-5.70;100.00
51526;BME280;37611;51.794;21.590;2022-12-18T16:21:08;102281.65;;;-5.79;100.00
51526;BME280;37611;51.794;21.590;2022-12-18T16:25:22;102290.72;;;-5.74;100.00
51526;BME280;37611;51.794;21.590;2022-12-18T16:29:26;102297.55;;;-5.74;100.00
51526;BME280;37611;51.794;21.590;2022-12-18T16:33:30;102302.33;;;-5.72;100.00
51526;BME280;37611;51.794;21.590;2022-12-18T16:37:32;102307.08;;;-5.77;100.00
51526;BME280;37611;51.794;21.590;2022-12-18T16:41:34;102301.27;;;-5.81;100.00
51526;BME280;37611;51.794;21.590;2022-12-18T16:45:36;102296.45;;;-5.88;100.00
51526;BME280;37611;51.794;21.590;2022-12-18T16:49:38;102293.17;;;-5.99;100.00
51526;BME280;37611;51.794;21.590;2022-12-18T16:53:40;102291.44;;;-6.06;100.00
51526;BME280;37611;51.794;21.590;2022-12-18T16:57:42;102291.71;;;-6.15;100.00
51526;BME280;37611;51.794;21.590;2022-12-18T17:01:44;102293.79;;;-6.10;100.00
51526;BME280;37611;51.794;21.590;2022-12-18T17:05:45;102286.85;;;-6.02;100.00
51526;BME280;37611;51.794;21.590;2022-12-18T17:09:48;102279.02;;;-5.96;100.00
51526;BME280;37611;51.794;21.590;2022-12-18T17:13:51;102283.66;;;-5.93;100.00
51526;BME280;37611;51.794;21.590;2022-12-18T17:17:52;102285.53;;;-5.92;100.00
51526;BME280;37611;51.794;21.590;2022-12-18T17:21:54;102290.14;;;-5.91;100.00
51526;BME280;37611;51.794;21.590;2022-12-18T17:25:57;102297.30;;;-5.93;100.00
51526;BME280;37611;51.794;21.590;2022-12-18T17:29:59;102303.92;;;-5.98;100.00
51526;BME280;37611;51.794;21.590;2022-12-18T17:34:02;102313.25;;;-6.07;100.00
51526;BME280;37611;51.794;21.590;2022-12-18T17:38:04;102319.23;;;-6.07;100.00
51526;BME280;37611;51.794;21.590;2022-12-18T17:42:06;102316.49;;;-6.05;100.00
51526;BME280;37611;51.794;21.590;2022-12-18T17:46:13;102319.41;;;-6.05;100.00
51526;BME280;37611;51.794;21.590;2022-12-18T17:50:15;102324.70;;;-6.03;100.00
51526;BME280;37611;51.794;21.590;2022-12-18T17:54:17;102320.44;;;-6.03;100.00
51526;BME280;37611;51.794;21.590;2022-12-18T17:58:19;102313.54;;;-6.13;100.00
51526;BME280;37611;51.794;21.590;2022-12-18T18:02:21;102317.76;;;-6.22;100.00
51526;BME280;37611;51.794;21.590;2022-12-18T18:06:23;102322.64;;;-6.30;100.00
51526;BME280;37611;51.794;21.590;2022-12-18T18:10:24;102325.14;;;-6.36;100.00
51526;BME280;37611;51.794;21.590;2022-12-18T18:14:26;102330.27;;;-6.35;100.00
51526;BME280;37611;51.794;21.590;2022-12-18T18:18:29;102334.55;;;-6.31;100.00
51526;BME280;37611;51.794;21.590;2022-12-18T18:22:32;102335.45;;;-6.28;100.00
51526;BME280;37611;51.794;21.590;2022-12-18T18:26:35;102345.48;;;-6.30;100.00
51526;BME280;37611;51.794;21.590;2022-12-18T18:30:37;102352.80;;;-6.32;100.00
51526;BME280;37611;51.794;21.590;2022-12-18T18:34:39;102361.81;;;-6.33;100.00
51526;BME280;37611;51.794;21.590;2022-12-18T18:38:41;102358.87;;;-6.39;100.00
51526;BME280;37611;51.794;21.590;2022-12-18T18:42:43;102356.95;;;-6.45;100.00
51526;BME280;37611;51.794;21.590;2022-12-18T18:46:45;102354.38;;;-6.47;100.00
51526;BME280;37611;51.794;21.590;2022-12-18T18:50:57;102350.27;;;-6.48;100.00
51526;BME280;37611;51.794;21.590;2022-12-18T18:55:00;102350.11;;;-6.47;100.00
51526;BME280;37611;51.794;21.590;2022-12-18T18:59:01;102356.58;;;-6.49;100.00
51526;BME280;37611;51.794;21.590;2022-12-18T19:03:03;102363.73;;;-6.49;100.00
51526;BME280;37611;51.794;21.590;2022-12-18T19:07:06;102358.78;;;-6.49;100.00
51526;BME280;37611;51.794;21.590;2022-12-18T19:11:09;102358.44;;;-6.50;100.00
51526;BME280;37611;51.794;21.590;2022-12-18T19:15:30;102353.13;;;-6.53;100.00
51526;BME280;37611;51.794;21.590;2022-12-18T19:19:31;102351.92;;;-6.54;100.00
51526;BME280;37611;51.794;21.590;2022-12-18T19:23:33;102370.83;;;-6.54;100.00
51526;BME280;37611;51.794;21.590;2022-12-18T19:27:35;102370.04;;;-6.49;100.00
51526;BME280;37611;51.794;21.590;2022-12-18T19:31:40;102376.16;;;-6.50;100.00
51526;BME280;37611;51.794;21.590;2022-12-18T19:35:42;102371.56;;;-6.50;100.00
51526;BME280;37611;51.794;21.590;2022-12-18T19:39:44;102367.61;;;-6.54;100.00
51526;BME280;37611;51.794;21.590;2022-12-18T19:43:46;102370.25;;;-6.62;100.00
51526;BME280;37611;51.794;21.590;2022-12-18T19:47:49;102379.02;;;-6.71;100.00
51526;BME280;37611;51.794;21.590;2022-12-18T19:51:51;102386.86;;;-6.71;100.00
51526;BME280;37611;51.794;21.590;2022-12-18T19:55:53;102386.86;;;-6.70;100.00
51526;BME280;37611;51.794;21.590;2022-12-18T19:59:55;102382.60;;;-6.71;100.00
51526;BME280;37611;51.794;21.590;2022-12-18T20:03:57;102380.49;;;-6.77;100.00
51526;BME280;37611;51.794;21.590;2022-12-18T20:07:59;102386.07;;;-6.82;100.00
51526;BME280;37611;51.794;21.590;2022-12-18T20:12:02;102396.56;;;-6.88;100.00
51526;BME280;37611;51.794;21.590;2022-12-18T20:16:04;102405.69;;;-6.94;100.00
51526;BME280;37611;51.794;21.590;2022-12-18T20:20:07;102407.86;;;-6.97;100.00
51526;BME280;37611;51.794;21.590;2022-12-18T20:24:09;102412.27;;;-6.98;100.00
51526;BME280;37611;51.794;21.590;2022-12-18T20:28:11;102412.15;;;-6.94;100.00
51526;BME280;37611;51.794;21.590;2022-12-18T20:32:13;102401.90;;;-6.97;100.00
51526;BME280;37611;51.794;21.590;2022-12-18T20:36:17;102394.70;;;-7.02;100.00
51526;BME280;37611;51.794;21.590;2022-12-18T20:40:19;102392.86;;;-7.12;100.00
51526;BME280;37611;51.794;21.590;2022-12-18T20:44:21;102382.88;;;-7.21;100.00
51526;BME280;37611;51.794;21.590;2022-12-18T20:48:22;102379.13;;;-7.21;100.00
51526;BME280;37611;51.794;21.590;2022-12-18T20:52:24;102374.02;;;-7.22;100.00
51526;BME280;37611;51.794;21.590;2022-12-18T20:56:27;102372.09;;;-7.26;100.00
51526;BME280;37611;51.794;21.590;2022-12-18T21:00:31;102369.03;;;-7.25;100.00
51526;BME280;37611;51.794;21.590;2022-12-18T21:04:33;102364.41;;;-7.28;100.00
51526;BME280;37611;51.794;21.590;2022-12-18T21:08:35;102355.29;;;-7.36;100.00
51526;BME280;37611;51.794;21.590;2022-12-18T21:12:37;102349.23;;;-7.44;100.00
51526;BME280;37611;51.794;21.590;2022-12-18T21:16:48;102355.36;;;-7.56;100.00
51526;BME280;37611;51.794;21.590;2022-12-18T21:20:50;102360.32;;;-7.55;100.00
51526;BME280;37611;51.794;21.590;2022-12-18T21:24:51;102371.04;;;-7.55;100.00
51526;BME280;37611;51.794;21.590;2022-12-18T21:28:54;102382.96;;;-7.54;100.00
51526;BME280;37611;51.794;21.590;2022-12-18T21:32:57;102378.71;;;-7.54;100.00
51526;BME280;37611;51.794;21.590;2022-12-18T21:36:59;102381.86;;;-7.60;100.00
51526;BME280;37611;51.794;21.590;2022-12-18T21:41:06;102383.48;;;-7.65;100.00
51526;BME280;37611;51.794;21.590;2022-12-18T21:45:09;102393.85;;;-7.66;100.00
51526;BME280;37611;51.794;21.590;2022-12-18T21:49:14;102393.21;;;-7.63;100.00
51526;BME280;37611;51.794;21.590;2022-12-18T21:53:18;102392.59;;;-7.58;100.00
51526;BME280;37611;51.794;21.590;2022-12-18T21:57:20;102391.44;;;-7.56;100.00
51526;BME280;37611;51.794;21.590;2022-12-18T22:01:22;102387.02;;;-7.56;100.00
51526;BME280;37611;51.794;21.590;2022-12-18T22:05:24;102380.04;;;-7.56;100.00
51526;BME280;37611;51.794;21.590;2022-12-18T22:09:26;102388.24;;;-7.53;100.00